createdAt,value
2018-12-29T00:00:16.826Z,62.3
2018-12-29T00:01:06.146Z,62.3
2018-12-29T00:01:56.986Z,62.3
2018-12-29T00:02:47.831Z,62.2
2018-12-29T00:03:36.230Z,62.2
2018-12-29T00:04:27.431Z,62.2
2018-12-29T00:05:16.888Z,62.2
2018-12-29T00:06:07.766Z,62.2
2018-12-29T00:06:57.027Z,62.1
2018-12-29T00:07:46.800Z,62.1
2018-12-29T00:08:37.120Z,62.1
2018-12-29T00:09:27.739Z,62.1
2018-12-29T00:10:17.578Z,62.1
2018-12-29T00:11:07.583Z,62.1
2018-12-29T00:11:56.913Z,62.1
2018-12-29T00:12:47.152Z,62.1
2018-12-29T00:13:38.020Z,62.1
2018-12-29T00:14:27.816Z,62
2018-12-29T00:15:18.130Z,62
2018-12-29T00:33:22.649Z,61.8
2018-12-29T00:34:12.737Z,61.8
2018-12-29T00:35:02.844Z,61.8
2018-12-29T00:35:52.594Z,61.7
2018-12-29T00:36:43.426Z,61.7
2018-12-29T00:37:32.949Z,61.7
2018-12-29T00:38:23.267Z,61.7
2018-12-29T00:39:13.079Z,61.6
2018-12-29T00:40:03.188Z,61.6
2018-12-29T00:40:52.647Z,61.6
2018-12-29T00:41:43.768Z,61.6
2018-12-29T00:42:33.309Z,61.6
2018-12-29T00:43:22.886Z,61.6
2018-12-29T00:44:13.394Z,61.6
2018-12-29T00:45:05.962Z,61.6
2018-12-29T00:45:52.954Z,61.6
2018-12-29T00:46:42.559Z,61.6
2018-12-29T00:47:33.896Z,61.5
2018-12-29T00:48:23.213Z,61.5
2018-12-29T00:49:14.013Z,61.5
2018-12-29T00:50:02.810Z,61.5
2018-12-29T00:50:53.586Z,61.5
2018-12-29T00:51:42.873Z,61.4
2018-12-29T00:52:33.418Z,61.4
2018-12-29T00:53:23.273Z,61.4
2018-12-29T00:54:13.854Z,61.4
2018-12-29T00:55:03.973Z,61.4
2018-12-29T00:55:53.723Z,61.4
2018-12-29T00:56:44.325Z,61.4
2018-12-29T00:57:33.280Z,61.4
2018-12-29T00:58:23.903Z,61.3
2018-12-29T00:59:14.493Z,61.3
2018-12-29T01:00:04.093Z,61.3
2018-12-29T01:00:54.333Z,61.3
2018-12-29T01:01:44.372Z,61.3
2018-12-29T01:02:34.192Z,61.3
2018-12-29T01:03:24.243Z,61.3
2018-12-29T01:04:14.535Z,61.3
2018-12-29T01:05:04.102Z,61.3
2018-12-29T01:05:54.196Z,61.3
2018-12-29T01:06:44.480Z,61.3
2018-12-29T01:07:33.770Z,61.2
2018-12-29T01:08:24.582Z,61.2
2018-12-29T01:09:14.152Z,61.2
2018-12-29T01:10:05.282Z,61.2
2018-12-29T01:10:55.524Z,61.1
2018-12-29T01:11:44.887Z,61.1
2018-12-29T01:12:34.880Z,61.1
2018-12-29T01:13:24.382Z,61.1
2018-12-29T01:14:14.980Z,61.1
2018-12-29T01:15:12.835Z,61.1
2018-12-29T01:15:55.189Z,61.1
2018-12-29T01:16:44.874Z,61.1
2018-12-29T01:17:34.934Z,61.1
2018-12-29T01:18:25.827Z,61.1
2018-12-29T01:19:15.819Z,61
2018-12-29T01:20:06.171Z,61
2018-12-29T01:20:55.510Z,61
2018-12-29T01:21:45.498Z,61
2018-12-29T01:22:36.307Z,61
2018-12-29T01:23:25.976Z,60.9
2018-12-29T01:24:15.887Z,60.9
2018-12-29T01:25:06.175Z,60.9
2018-12-29T01:25:56.234Z,60.9
2018-12-29T01:26:46.127Z,60.9
2018-12-29T01:27:35.823Z,60.9
2018-12-29T01:28:25.902Z,60.9
2018-12-29T01:29:15.446Z,60.9
2018-12-29T01:30:06.876Z,60.9
2018-12-29T01:30:56.601Z,60.8
2018-12-29T01:31:46.961Z,60.8
2018-12-29T01:32:36.738Z,60.8
2018-12-29T01:33:27.069Z,60.8
2018-12-29T01:34:16.917Z,60.8
2018-12-29T01:35:06.873Z,60.8
2018-12-29T01:35:56.668Z,60.8
2018-12-29T01:36:47.018Z,60.8
2018-12-29T01:37:37.094Z,60.8
2018-12-29T01:38:27.131Z,60.8
2018-12-29T01:39:17.185Z,60.8
2018-12-29T01:40:06.978Z,60.7
2018-12-29T01:40:57.021Z,60.7
2018-12-29T01:41:47.373Z,60.7
2018-12-29T01:42:37.701Z,60.6
2018-12-29T01:43:27.216Z,60.6
2018-12-29T01:44:17.805Z,60.6
2018-12-29T01:45:07.605Z,60.6
2018-12-29T01:45:56.610Z,60.6
2018-12-29T01:46:47.160Z,60.6
2018-12-29T01:47:36.933Z,60.6
2018-12-29T01:48:28.096Z,60.6
2018-12-29T01:49:17.590Z,60.6
2018-12-29T01:50:07.748Z,60.6
2018-12-29T01:50:58.563Z,60.5
2018-12-29T01:51:48.118Z,60.5
2018-12-29T01:52:37.585Z,60.5
2018-12-29T01:53:27.895Z,60.5
2018-12-29T01:54:18.218Z,60.5
2018-12-29T01:55:08.075Z,60.4
2018-12-29T01:55:58.335Z,60.4
2018-12-29T01:56:47.851Z,60.4
2018-12-29T01:57:38.455Z,60.4
2018-12-29T01:58:28.792Z,60.4
2018-12-29T01:59:17.740Z,60.4
2018-12-29T02:00:08.337Z,60.4
2018-12-29T02:00:59.062Z,60.4
2018-12-29T02:01:48.685Z,60.4
2018-12-29T02:02:38.790Z,60.3
2018-12-29T02:03:28.855Z,60.3
2018-12-29T02:04:18.681Z,60.3
2018-12-29T02:05:08.686Z,60.3
2018-12-29T02:05:59.047Z,60.3
2018-12-29T02:06:49.660Z,60.3
2018-12-29T02:07:38.599Z,60.3
2018-12-29T02:08:29.474Z,60.3
2018-12-29T02:09:19.537Z,60.3
2018-12-29T02:10:08.844Z,60.3
2018-12-29T02:10:58.812Z,60.2
2018-12-29T02:11:50.203Z,60.2
2018-12-29T02:12:39.806Z,60.2
2018-12-29T02:13:28.969Z,60.2
2018-12-29T02:14:19.337Z,60.2
2018-12-29T02:15:09.394Z,60.1
2018-12-29T02:15:59.727Z,60.1
2018-12-29T02:16:50.048Z,60.1
2018-12-29T02:17:39.827Z,60.1
2018-12-29T02:18:29.626Z,60.1
2018-12-29T02:19:19.111Z,60.1
2018-12-29T02:20:09.999Z,60.1
2018-12-29T02:20:59.256Z,60.1
2018-12-29T02:21:50.088Z,60.1
2018-12-29T02:22:40.158Z,60
2018-12-29T02:23:29.956Z,60
2018-12-29T02:24:20.563Z,60
2018-12-29T02:25:10.613Z,60
2018-12-29T02:26:00.416Z,59.9
2018-12-29T02:26:50.748Z,59.9
2018-12-29T02:27:40.743Z,59.9
2018-12-29T02:28:30.583Z,59.9
2018-12-29T02:29:20.359Z,59.9
2018-12-29T02:30:10.731Z,59.9
2018-12-29T02:31:00.484Z,59.9
2018-12-29T02:31:51.338Z,59.9
2018-12-29T02:32:40.881Z,59.9
2018-12-29T02:33:30.926Z,59.9
2018-12-29T02:34:21.342Z,59.8
2018-12-29T02:35:10.743Z,59.8
2018-12-29T02:36:00.675Z,59.8
2018-12-29T02:36:51.162Z,59.8
2018-12-29T02:37:40.941Z,59.8
2018-12-29T02:38:31.302Z,59.8
2018-12-29T02:39:21.342Z,59.8
2018-12-29T02:40:11.429Z,59.8
2018-12-29T02:41:01.257Z,59.8
2018-12-29T02:41:51.782Z,59.8
2018-12-29T02:42:41.289Z,59.7
2018-12-29T02:43:31.607Z,59.7
2018-12-29T02:44:21.937Z,59.7
2018-12-29T02:45:12.090Z,59.7
2018-12-29T02:46:01.260Z,59.7
2018-12-29T02:46:52.136Z,59.6
2018-12-29T02:47:41.635Z,59.6
2018-12-29T02:48:32.510Z,59.6
2018-12-29T02:49:22.032Z,59.5
2018-12-29T02:50:12.214Z,59.4
2018-12-29T02:51:01.616Z,59.3
2018-12-29T02:51:52.493Z,59.2
2018-12-29T02:52:42.221Z,59.1
2018-12-29T02:53:32.354Z,59.1
2018-12-29T02:54:22.181Z,59.2
2018-12-29T02:55:12.444Z,59.3
2018-12-29T02:56:02.751Z,59.4
2018-12-29T02:56:52.841Z,59.6
2018-12-29T02:57:42.343Z,59.8
2018-12-29T02:58:32.890Z,59.9
2018-12-29T02:59:22.393Z,60.2
2018-12-29T03:00:12.818Z,60.4
2018-12-29T03:01:03.101Z,60.6
2018-12-29T03:01:52.888Z,60.8
2018-12-29T03:02:42.918Z,61.1
2018-12-29T03:03:33.305Z,61.2
2018-12-29T03:04:23.321Z,61.3
2018-12-29T03:05:13.390Z,61.4
2018-12-29T03:06:03.188Z,61.6
2018-12-29T03:06:53.243Z,61.8
2018-12-29T03:07:43.270Z,61.9
2018-12-29T03:08:32.785Z,62
2018-12-29T03:09:23.416Z,62.2
2018-12-29T03:10:13.441Z,62.4
2018-12-29T03:11:03.225Z,62.4
2018-12-29T03:11:53.185Z,62.5
2018-12-29T03:12:43.160Z,62.7
2018-12-29T03:13:33.487Z,62.9
2018-12-29T03:14:24.116Z,62.9
2018-12-29T03:15:13.603Z,63
2018-12-29T03:16:03.415Z,63.1
2018-12-29T03:16:53.436Z,63.3
2018-12-29T03:17:43.238Z,63.4
2018-12-29T03:18:33.543Z,63.4
2018-12-29T03:19:23.879Z,63.5
2018-12-29T03:20:13.911Z,63.7
2018-12-29T03:21:03.999Z,63.8
2018-12-29T03:21:53.515Z,63.9
2018-12-29T03:22:43.858Z,63.9
2018-12-29T03:23:33.927Z,64.1
2018-12-29T03:24:24.202Z,64.2
2018-12-29T03:25:14.277Z,64.2
2018-12-29T03:26:04.099Z,64.3
2018-12-29T03:26:53.837Z,64.4
2018-12-29T03:27:44.179Z,64.5
2018-12-29T03:28:34.263Z,64.5
2018-12-29T03:29:24.527Z,64.6
2018-12-29T03:30:14.673Z,64.8
2018-12-29T03:31:05.341Z,64.8
2018-12-29T03:31:54.525Z,64.8
2018-12-29T03:32:44.588Z,64.8
2018-12-29T03:33:35.336Z,64.9
2018-12-29T03:34:24.928Z,65.1
2018-12-29T03:35:15.234Z,65.1
2018-12-29T03:36:05.034Z,65.1
2018-12-29T03:36:55.275Z,65.1
2018-12-29T03:37:45.186Z,65.3
2018-12-29T03:38:34.911Z,65.4
2018-12-29T03:39:26.127Z,65.4
2018-12-29T03:40:16.051Z,65.4
2018-12-29T03:41:05.305Z,65.4
2018-12-29T03:41:54.593Z,65.6
2018-12-29T03:42:45.229Z,65.7
2018-12-29T03:43:35.456Z,65.8
2018-12-29T03:44:24.788Z,65.8
2018-12-29T03:45:15.866Z,65.8
2018-12-29T03:46:05.631Z,65.8
2018-12-29T03:46:55.163Z,65.8
2018-12-29T03:47:45.743Z,65.8
2018-12-29T03:48:35.618Z,65.9
2018-12-29T03:49:26.446Z,65.8
2018-12-29T03:50:15.928Z,65.8
2018-12-29T03:51:06.535Z,65.9
2018-12-29T03:51:56.050Z,65.9
2018-12-29T03:52:45.535Z,65.8
2018-12-29T03:53:36.705Z,65.8
2018-12-29T03:54:26.273Z,65.8
2018-12-29T03:55:16.599Z,65.8
2018-12-29T03:56:06.130Z,65.8
2018-12-29T03:56:56.105Z,65.8
2018-12-29T03:57:47.003Z,65.8
2018-12-29T03:58:36.803Z,65.8
2018-12-29T03:59:27.115Z,65.8
2018-12-29T04:00:16.935Z,65.8
2018-12-29T04:01:06.950Z,65.8
2018-12-29T04:01:56.483Z,65.8
2018-12-29T04:02:46.589Z,65.8
2018-12-29T04:03:36.847Z,65.8
2018-12-29T04:04:27.472Z,65.7
2018-12-29T04:05:17.798Z,65.7
2018-12-29T04:06:07.028Z,65.7
2018-12-29T04:06:57.643Z,65.7
2018-12-29T04:07:47.152Z,65.7
2018-12-29T04:08:37.475Z,65.7
2018-12-29T04:09:26.979Z,65.7
2018-12-29T04:10:17.819Z,65.7
2018-12-29T04:11:07.680Z,65.6
2018-12-29T04:11:57.407Z,65.6
2018-12-29T04:12:47.806Z,65.6
2018-12-29T04:13:37.724Z,65.6
2018-12-29T04:14:27.909Z,65.6
2018-12-29T04:15:17.656Z,65.6
2018-12-29T04:16:08.246Z,65.6
2018-12-29T04:16:58.075Z,65.6
2018-12-29T04:17:47.824Z,65.6
2018-12-29T04:18:38.532Z,65.6
2018-12-29T04:19:28.278Z,65.6
2018-12-29T04:20:18.049Z,65.5
2018-12-29T04:21:08.538Z,65.5
2018-12-29T04:21:58.381Z,65.5
2018-12-29T04:22:48.443Z,65.5
2018-12-29T04:23:37.676Z,65.5
2018-12-29T04:24:28.062Z,65.4
2018-12-29T04:25:19.545Z,65.4
2018-12-29T04:26:08.677Z,65.4
2018-12-29T04:26:58.999Z,65.4
2018-12-29T04:27:48.218Z,65.4
2018-12-29T04:28:37.733Z,65.4
2018-12-29T04:29:27.796Z,65.4
2018-12-29T04:30:19.056Z,65.4
2018-12-29T04:31:09.286Z,65.4
2018-12-29T04:31:58.771Z,65.4
2018-12-29T04:32:49.147Z,65.4
2018-12-29T04:33:38.341Z,65.4
2018-12-29T04:34:28.969Z,65.3
2018-12-29T04:35:19.138Z,65.4
2018-12-29T04:36:09.143Z,65.3
2018-12-29T04:36:58.590Z,65.3
2018-12-29T04:37:48.968Z,65.3
2018-12-29T04:38:38.711Z,65.3
2018-12-29T04:39:29.293Z,65.3
2018-12-29T04:40:19.628Z,65.3
2018-12-29T04:41:10.181Z,65.3
2018-12-29T04:41:59.500Z,65.3
2018-12-29T04:42:49.808Z,65.3
2018-12-29T04:43:40.115Z,65.3
2018-12-29T04:44:29.362Z,65.3
2018-12-29T04:45:20.249Z,65.2
2018-12-29T05:02:38.037Z,65
2018-12-29T05:03:27.224Z,65
2018-12-29T05:04:17.282Z,65
2018-12-29T05:05:07.879Z,65
2018-12-29T05:05:57.374Z,65
2018-12-29T05:06:47.772Z,65
2018-12-29T05:07:38.614Z,65
2018-12-29T05:08:27.821Z,65
2018-12-29T05:09:17.874Z,64.9
2018-12-29T05:10:07.687Z,64.9
2018-12-29T05:10:57.467Z,64.9
2018-12-29T05:11:48.051Z,64.9
2018-12-29T05:12:37.841Z,64.9
2018-12-29T05:13:27.608Z,64.9
2018-12-29T05:14:17.653Z,64.9
2018-12-29T05:15:07.723Z,64.9
2018-12-29T05:15:58.611Z,64.9
2018-12-29T05:16:48.114Z,64.9
2018-12-29T05:17:37.909Z,64.9
2018-12-29T05:18:28.528Z,64.9
2018-12-29T05:19:18.825Z,64.9
2018-12-29T05:20:08.348Z,64.9
2018-12-29T05:20:58.937Z,64.9
2018-12-29T05:21:48.488Z,64.8
2018-12-29T05:22:38.065Z,64.8
2018-12-29T05:23:28.932Z,64.8
2018-12-29T05:24:18.920Z,64.8
2018-12-29T05:25:08.960Z,64.8
2018-12-29T05:25:59.006Z,64.8
2018-12-29T05:26:49.126Z,64.8
2018-12-29T05:27:39.125Z,64.8
2018-12-29T05:28:29.162Z,64.8
2018-12-29T05:29:18.422Z,64.8
2018-12-29T05:30:09.010Z,64.8
2018-12-29T05:30:59.374Z,64.8
2018-12-29T05:31:49.139Z,64.8
2018-12-29T05:32:38.959Z,64.8
2018-12-29T05:33:29.514Z,64.8
2018-12-29T05:34:19.020Z,64.7
2018-12-29T05:35:09.377Z,64.7
2018-12-29T05:35:59.160Z,64.7
2018-12-29T05:36:49.759Z,64.7
2018-12-29T05:37:40.100Z,64.7
2018-12-29T05:38:30.417Z,64.7
2018-12-29T05:39:19.662Z,64.7
2018-12-29T05:40:10.005Z,64.6
2018-12-29T05:40:59.269Z,64.6
2018-12-29T05:41:49.549Z,64.6
2018-12-29T05:42:40.154Z,64.6
2018-12-29T05:43:30.221Z,64.6
2018-12-29T05:44:20.565Z,64.6
2018-12-29T05:45:10.624Z,64.6
2018-12-29T05:46:00.723Z,64.6
2018-12-29T05:46:50.726Z,64.6
2018-12-29T05:47:40.232Z,64.6
2018-12-29T05:48:30.852Z,64.6
2018-12-29T05:49:20.646Z,64.6
2018-12-29T05:50:10.968Z,64.6
2018-12-29T05:51:00.744Z,64.5
2018-12-29T05:51:50.799Z,64.5
2018-12-29T05:52:40.586Z,64.5
2018-12-29T05:53:31.224Z,64.5
2018-12-29T05:54:20.936Z,64.5
2018-12-29T05:55:10.755Z,64.5
2018-12-29T05:56:01.106Z,64.5
2018-12-29T05:56:51.413Z,64.4
2018-12-29T05:57:41.211Z,64.4
2018-12-29T05:58:31.254Z,64.4
2018-12-29T05:59:22.106Z,64.4
2018-12-29T06:00:11.379Z,64.4
2018-12-29T06:01:01.153Z,64.4
2018-12-29T06:01:50.396Z,64.4
2018-12-29T06:02:41.808Z,64.4
2018-12-29T06:03:31.853Z,64.4
2018-12-29T06:04:21.688Z,64.4
2018-12-29T06:05:11.423Z,64.4
2018-12-29T06:06:01.771Z,64.4
2018-12-29T06:06:51.813Z,64.4
2018-12-29T06:07:41.700Z,64.4
2018-12-29T06:08:31.410Z,64.3
2018-12-29T06:09:21.993Z,64.3
2018-12-29T06:10:12.050Z,64.3
2018-12-29T06:11:01.833Z,64.3
2018-12-29T06:11:52.437Z,64.3
2018-12-29T06:12:41.950Z,64.3
2018-12-29T06:13:31.807Z,64.3
2018-12-29T06:14:22.262Z,64.3
2018-12-29T06:15:12.397Z,64.3
2018-12-29T06:16:02.707Z,64.3
2018-12-29T06:16:52.237Z,64.3
2018-12-29T06:17:42.836Z,64.3
2018-12-29T06:18:32.892Z,64.3
2018-12-29T06:19:22.712Z,64.3
2018-12-29T06:20:12.479Z,64.2
2018-12-29T06:21:02.852Z,64.2
2018-12-29T06:21:52.582Z,64.2
2018-12-29T06:22:42.086Z,64.2
2018-12-29T06:23:32.689Z,64.2
2018-12-29T06:24:23.304Z,64.2
2018-12-29T06:25:13.159Z,64.2
2018-12-29T06:26:03.124Z,64.2
2018-12-29T06:26:53.519Z,64.1
2018-12-29T06:27:43.239Z,64.1
2018-12-29T06:28:33.314Z,64.1
2018-12-29T06:29:23.361Z,64.1
2018-12-29T06:30:13.778Z,64.1
2018-12-29T06:31:02.901Z,64.1
2018-12-29T06:31:53.784Z,64.1
2018-12-29T06:32:43.593Z,64.1
2018-12-29T06:33:33.361Z,64.1
2018-12-29T06:34:23.413Z,64.1
2018-12-29T06:35:13.479Z,64.1
2018-12-29T06:36:03.523Z,64.1
2018-12-29T06:36:53.613Z,64.1
2018-12-29T06:37:43.651Z,64
2018-12-29T06:38:34.250Z,64
2018-12-29T06:39:23.769Z,64
2018-12-29T06:40:13.819Z,64
2018-12-29T06:41:03.348Z,64
2018-12-29T06:41:54.815Z,64
2018-12-29T06:42:44.058Z,64
2018-12-29T06:43:34.328Z,63.9
2018-12-29T06:44:24.661Z,63.9
2018-12-29T06:45:14.713Z,63.9
2018-12-29T06:46:04.845Z,63.9
2018-12-29T06:46:53.712Z,63.9
2018-12-29T06:47:44.340Z,63.9
2018-12-29T06:48:33.843Z,63.9
2018-12-29T06:49:24.433Z,63.9
2018-12-29T06:50:14.788Z,63.9
2018-12-29T06:51:05.148Z,63.9
2018-12-29T06:51:54.872Z,63.9
2018-12-29T06:52:44.946Z,63.9
2018-12-29T06:53:34.730Z,63.9
2018-12-29T06:54:25.084Z,63.9
2018-12-29T06:55:14.792Z,63.8
2018-12-29T06:56:05.155Z,63.8
2018-12-29T06:56:54.970Z,63.8
2018-12-29T06:57:45.003Z,63.8
2018-12-29T06:58:34.798Z,63.8
2018-12-29T06:59:25.735Z,63.8
2018-12-29T07:00:15.435Z,63.8
2018-12-29T07:01:06.110Z,63.8
2018-12-29T07:01:55.839Z,63.8
2018-12-29T07:02:44.526Z,63.8
2018-12-29T07:03:35.752Z,63.8
2018-12-29T07:04:25.777Z,63.8
2018-12-29T07:05:15.809Z,63.7
2018-12-29T07:06:06.371Z,63.8
2018-12-29T07:06:56.184Z,63.8
2018-12-29T07:07:45.699Z,63.7
2018-12-29T07:08:35.474Z,63.7
2018-12-29T07:09:24.989Z,63.7
2018-12-29T07:10:16.657Z,63.7
2018-12-29T07:11:06.187Z,63.7
2018-12-29T07:11:55.709Z,63.6
2018-12-29T07:12:45.496Z,63.6
2018-12-29T07:13:36.101Z,63.6
2018-12-29T07:14:25.598Z,63.6
2018-12-29T07:15:15.671Z,63.6
2018-12-29T07:16:06.556Z,63.6
2018-12-29T07:16:57.861Z,63.6
2018-12-29T07:17:46.401Z,63.6
2018-12-29T07:18:35.851Z,63.6
2018-12-29T07:19:26.258Z,63.6
2018-12-29T07:20:16.264Z,63.6
2018-12-29T07:21:06.608Z,63.6
2018-12-29T07:21:56.970Z,63.5
2018-12-29T07:22:46.985Z,63.5
2018-12-29T07:23:36.778Z,63.5
2018-12-29T07:24:26.285Z,63.5
2018-12-29T07:25:17.164Z,63.5
2018-12-29T07:26:06.654Z,63.5
2018-12-29T07:26:57.581Z,63.4
2018-12-29T07:27:47.593Z,63.4
2018-12-29T07:28:36.825Z,63.4
2018-12-29T07:29:27.765Z,63.4
2018-12-29T07:30:17.265Z,63.4
2018-12-29T07:31:07.802Z,63.4
2018-12-29T07:31:57.340Z,63.4
2018-12-29T07:32:47.947Z,63.4
2018-12-29T07:33:37.795Z,63.4
2018-12-29T07:34:27.517Z,63.4
2018-12-29T07:35:19.743Z,63.4
2018-12-29T07:36:07.950Z,63.4
2018-12-29T07:36:58.217Z,63.3
2018-12-29T07:37:47.999Z,63.3
2018-12-29T07:38:38.339Z,63.3
2018-12-29T07:39:27.854Z,63.3
2018-12-29T07:40:17.616Z,63.3
2018-12-29T07:41:08.218Z,63.3
2018-12-29T07:41:58.801Z,63.3
2018-12-29T07:42:48.384Z,63.3
2018-12-29T07:43:38.401Z,63.3
2018-12-29T07:44:28.489Z,63.3
2018-12-29T07:45:18.513Z,63.3
2018-12-29T07:46:07.739Z,63.3
2018-12-29T07:46:58.152Z,63.3
2018-12-29T07:47:48.684Z,63.3
2018-12-29T07:48:38.736Z,63.2
2018-12-29T07:49:28.819Z,63.2
2018-12-29T07:50:18.586Z,63.2
2018-12-29T07:51:08.656Z,63.2
2018-12-29T07:51:59.216Z,63.2
2018-12-29T07:52:48.208Z,63.1
2018-12-29T07:53:39.088Z,63.1
2018-12-29T07:54:29.416Z,63.1
2018-12-29T07:55:19.553Z,63.1
2018-12-29T07:56:08.996Z,63.1
2018-12-29T07:56:59.354Z,63.1
2018-12-29T07:57:48.830Z,63.1
2018-12-29T07:58:38.880Z,63.1
2018-12-29T07:59:29.768Z,63.1
2018-12-29T08:00:19.813Z,63.1
2018-12-29T08:01:09.048Z,63
2018-12-29T08:02:00.218Z,63
2018-12-29T08:02:49.150Z,63
2018-12-29T08:03:39.791Z,63
2018-12-29T08:04:30.095Z,63
2018-12-29T08:05:19.890Z,63
2018-12-29T08:06:09.942Z,62.9
2018-12-29T08:06:59.967Z,62.9
2018-12-29T08:07:50.294Z,62.9
2018-12-29T08:08:39.830Z,62.9
2018-12-29T08:09:29.589Z,62.9
2018-12-29T08:10:20.009Z,62.9
2018-12-29T08:11:10.307Z,62.9
2018-12-29T08:12:00.687Z,62.9
2018-12-29T08:12:50.104Z,62.9
2018-12-29T08:13:40.189Z,62.9
2018-12-29T08:14:30.497Z,62.9
2018-12-29T08:15:20.559Z,62.8
2018-12-29T08:16:10.603Z,62.8
2018-12-29T08:17:00.192Z,62.8
2018-12-29T08:17:50.446Z,62.8
2018-12-29T08:18:41.398Z,62.8
2018-12-29T08:19:31.103Z,62.8
2018-12-29T08:20:20.879Z,62.8
2018-12-29T08:21:10.677Z,62.8
2018-12-29T08:22:00.741Z,62.8
2018-12-29T08:22:50.797Z,62.8
2018-12-29T08:23:41.902Z,62.8
2018-12-29T08:24:30.907Z,62.7
2018-12-29T08:25:20.963Z,62.8
2018-12-29T08:26:11.054Z,62.7
2018-12-29T08:27:01.346Z,62.7
2018-12-29T08:27:51.933Z,62.7
2018-12-29T08:28:41.442Z,62.7
2018-12-29T08:29:31.240Z,62.6
2018-12-29T08:30:21.316Z,62.6
2018-12-29T08:31:11.656Z,62.6
2018-12-29T08:32:01.716Z,62.6
2018-12-29T08:32:52.065Z,62.6
2018-12-29T08:33:42.333Z,62.6
2018-12-29T08:34:31.588Z,62.6
2018-12-29T08:35:21.433Z,62.6
2018-12-29T08:36:11.990Z,62.6
2018-12-29T08:37:02.316Z,62.6
2018-12-29T08:37:51.313Z,62.6
2018-12-29T08:38:42.387Z,62.5
2018-12-29T08:39:31.936Z,62.5
2018-12-29T08:40:21.783Z,62.5
2018-12-29T08:41:12.392Z,62.5
2018-12-29T08:42:02.177Z,62.5
2018-12-29T08:42:51.887Z,62.5
2018-12-29T08:43:42.492Z,62.4
2018-12-29T08:44:31.992Z,62.4
2018-12-29T08:45:22.882Z,62.4
2018-12-29T08:46:12.402Z,62.4
2018-12-29T08:47:08.052Z,62.4
2018-12-29T08:47:52.752Z,62.4
2018-12-29T08:48:42.292Z,62.4
2018-12-29T08:49:32.342Z,62.4
2018-12-29T08:50:23.205Z,62.4
2018-12-29T08:51:12.720Z,62.4
2018-12-29T08:52:02.540Z,62.3
2018-12-29T08:52:53.099Z,62.4
2018-12-29T08:53:42.627Z,62.3
2018-12-29T08:54:33.004Z,62.3
2018-12-29T08:55:23.017Z,62.3
2018-12-29T08:56:13.649Z,62.3
2018-12-29T08:57:02.635Z,62.3
2018-12-29T08:57:52.987Z,62.3
2018-12-29T08:58:43.529Z,62.3
2018-12-29T08:59:33.821Z,62.3
2018-12-29T09:00:23.377Z,62.3
2018-12-29T09:01:13.969Z,62.3
2018-12-29T09:17:00.238Z,62
2018-12-29T09:17:50.080Z,62
2018-12-29T09:18:39.490Z,62
2018-12-29T09:19:30.473Z,62
2018-12-29T09:20:20.418Z,62
2018-12-29T09:21:09.678Z,61.9
2018-12-29T09:21:59.965Z,61.9
2018-12-29T09:22:50.303Z,61.9
2018-12-29T09:23:39.825Z,61.9
2018-12-29T09:24:30.458Z,61.9
2018-12-29T09:25:20.210Z,61.9
2018-12-29T09:26:10.548Z,61.9
2018-12-29T09:27:00.118Z,61.9
2018-12-29T09:27:50.693Z,61.9
2018-12-29T09:28:40.448Z,61.9
2018-12-29T09:29:30.515Z,61.8
2018-12-29T09:30:20.000Z,61.8
2018-12-29T09:31:10.627Z,61.8
2018-12-29T09:32:00.786Z,61.8
2018-12-29T09:32:51.062Z,61.8
2018-12-29T09:33:40.534Z,61.8
2018-12-29T09:34:30.568Z,61.8
2018-12-29T09:35:20.420Z,61.8
2018-12-29T09:36:10.677Z,61.8
2018-12-29T09:37:01.010Z,61.8
2018-12-29T09:37:50.522Z,61.8
2018-12-29T09:38:41.122Z,61.7
2018-12-29T09:39:31.167Z,61.7
2018-12-29T09:40:20.762Z,61.7
2018-12-29T09:41:11.581Z,61.7
2018-12-29T09:42:01.365Z,61.7
2018-12-29T09:42:50.579Z,61.7
2018-12-29T09:43:41.819Z,61.7
2018-12-29T09:44:31.251Z,61.6
2018-12-29T09:45:21.299Z,61.6
2018-12-29T09:46:11.929Z,61.6
2018-12-29T09:47:01.407Z,61.6
2018-12-29T09:47:52.031Z,61.6
2018-12-29T09:48:41.584Z,61.6
2018-12-29T09:49:31.858Z,61.6
2018-12-29T09:50:21.949Z,61.6
2018-12-29T09:51:11.696Z,61.6
2018-12-29T09:52:02.059Z,61.6
2018-12-29T09:52:52.398Z,61.5
2018-12-29T09:53:42.441Z,61.5
2018-12-29T09:54:31.671Z,61.5
2018-12-29T09:55:22.005Z,61.5
2018-12-29T09:56:12.113Z,61.5
2018-12-29T09:57:01.639Z,61.4
2018-12-29T09:57:52.168Z,61.4
2018-12-29T09:58:42.770Z,61.4
2018-12-29T09:59:32.933Z,61.4
2018-12-29T10:00:22.617Z,61.4
2018-12-29T10:01:12.478Z,61.4
2018-12-29T10:02:02.738Z,61.4
2018-12-29T10:02:53.072Z,61.4
2018-12-29T10:03:42.885Z,61.4
2018-12-29T10:04:31.807Z,61.4
2018-12-29T10:05:22.962Z,61.4
2018-12-29T10:06:13.022Z,61.3
2018-12-29T10:07:03.077Z,61.3
2018-12-29T10:07:52.855Z,61.3
2018-12-29T10:08:43.514Z,61.3
2018-12-29T10:09:32.679Z,61.3
2018-12-29T10:10:23.020Z,61.3
2018-12-29T10:11:13.423Z,61.3
2018-12-29T10:12:03.407Z,61.3
2018-12-29T10:12:53.740Z,61.3
2018-12-29T10:13:43.864Z,61.3
2018-12-29T10:14:33.854Z,61.2
2018-12-29T10:15:23.151Z,61.2
2018-12-29T10:16:13.496Z,61.2
2018-12-29T10:17:03.539Z,61.2
2018-12-29T10:17:53.334Z,61.2
2018-12-29T10:18:44.135Z,61.2
2018-12-29T10:19:33.933Z,61.1
2018-12-29T10:20:23.936Z,61.1
2018-12-29T10:21:14.036Z,61.1
2018-12-29T10:22:03.572Z,61.1
2018-12-29T10:22:53.904Z,61.1
2018-12-29T10:23:43.936Z,61.1
2018-12-29T10:24:34.546Z,61.1
2018-12-29T10:25:24.624Z,61.1
2018-12-29T10:26:14.116Z,61.1
2018-12-29T10:27:04.434Z,61.1
2018-12-29T10:27:54.774Z,61.1
2018-12-29T10:28:44.568Z,61
2018-12-29T10:29:34.651Z,61
2018-12-29T10:30:24.776Z,61
2018-12-29T10:31:14.958Z,61
2018-12-29T10:32:04.768Z,61
2018-12-29T10:32:55.106Z,60.9
2018-12-29T10:33:43.866Z,60.9
2018-12-29T10:34:34.203Z,60.9
2018-12-29T10:35:24.721Z,60.9
2018-12-29T10:36:15.325Z,60.9
2018-12-29T10:37:05.396Z,60.9
2018-12-29T10:37:55.453Z,60.9
2018-12-29T10:38:44.780Z,60.9
2018-12-29T10:39:34.586Z,60.9
2018-12-29T10:40:24.845Z,60.8
2018-12-29T10:41:15.215Z,60.8
2018-12-29T10:42:04.705Z,60.8
2018-12-29T10:42:54.764Z,60.8
2018-12-29T10:43:45.316Z,60.8
2018-12-29T10:44:35.438Z,60.8
2018-12-29T10:45:25.507Z,60.8
2018-12-29T10:46:15.745Z,60.8
2018-12-29T10:47:05.056Z,60.8
2018-12-29T10:47:54.832Z,60.8
2018-12-29T10:48:45.762Z,60.8
2018-12-29T10:49:35.952Z,60.8
2018-12-29T10:50:25.568Z,60.7
2018-12-29T10:51:15.889Z,60.7
2018-12-29T10:52:04.907Z,60.7
2018-12-29T10:52:55.720Z,60.7
2018-12-29T10:53:45.513Z,60.7
2018-12-29T10:54:36.200Z,60.7
2018-12-29T10:55:25.384Z,60.6
2018-12-29T10:56:15.421Z,60.6
2018-12-29T10:57:05.761Z,60.6
2018-12-29T10:57:55.779Z,60.6
2018-12-29T10:58:45.667Z,60.6
2018-12-29T10:59:35.657Z,60.6
2018-12-29T11:00:26.519Z,60.6
2018-12-29T11:01:16.579Z,60.6
2018-12-29T11:02:06.625Z,60.6
2018-12-29T11:02:56.435Z,60.6
2018-12-29T11:03:46.194Z,60.5
2018-12-29T11:04:36.518Z,60.5
2018-12-29T11:05:26.603Z,60.5
2018-12-29T11:06:16.917Z,60.5
2018-12-29T11:07:06.158Z,60.5
2018-12-29T11:07:56.771Z,60.4
2018-12-29T11:08:46.823Z,60.4
2018-12-29T11:09:37.151Z,60.4
2018-12-29T11:10:26.390Z,60.4
2018-12-29T11:11:17.396Z,60.4
2018-12-29T11:12:07.408Z,60.4
2018-12-29T11:12:57.365Z,60.4
2018-12-29T11:13:47.158Z,60.4
2018-12-29T11:14:36.750Z,60.4
2018-12-29T11:15:26.995Z,60.4
2018-12-29T11:16:17.295Z,60.3
2018-12-29T11:17:07.858Z,60.3
2018-12-29T11:17:57.164Z,60.3
2018-12-29T11:18:49.178Z,60.3
2018-12-29T11:19:37.632Z,60.3
2018-12-29T11:20:27.903Z,60.3
2018-12-29T11:21:17.654Z,60.3
2018-12-29T11:22:07.748Z,60.3
2018-12-29T11:22:57.547Z,60.3
2018-12-29T11:23:48.210Z,60.3
2018-12-29T11:24:40.188Z,60.3
2018-12-29T11:25:27.947Z,60.3
2018-12-29T11:26:18.013Z,60.2
2018-12-29T11:27:07.507Z,60.2
2018-12-29T11:27:57.855Z,60.2
2018-12-29T11:28:50.168Z,60.2
2018-12-29T11:29:37.964Z,60.2
2018-12-29T11:30:28.764Z,60.1
2018-12-29T11:31:18.627Z,60.1
2018-12-29T11:32:09.149Z,60.1
2018-12-29T11:32:58.392Z,60.1
2018-12-29T11:33:48.294Z,60.1
2018-12-29T11:34:39.052Z,60.1
2018-12-29T11:35:32.617Z,60.1
2018-12-29T11:36:18.899Z,60.1
2018-12-29T11:37:08.532Z,60.1
2018-12-29T11:37:59.587Z,60
2018-12-29T11:38:49.341Z,60
2018-12-29T11:39:39.404Z,60
2018-12-29T11:40:29.173Z,60
2018-12-29T11:41:19.209Z,60
2018-12-29T11:42:09.291Z,60
2018-12-29T11:42:59.324Z,59.9
2018-12-29T11:43:49.404Z,59.9
2018-12-29T11:44:39.753Z,59.9
2018-12-29T11:45:29.482Z,59.9
2018-12-29T11:46:19.391Z,59.9
2018-12-29T11:47:10.161Z,59.9
2018-12-29T11:47:59.672Z,59.9
2018-12-29T11:48:52.263Z,59.9
2018-12-29T11:49:40.433Z,59.9
2018-12-29T11:50:30.261Z,59.9
2018-12-29T11:51:19.758Z,59.8
2018-12-29T11:52:11.730Z,59.8
2018-12-29T11:53:00.086Z,59.8
2018-12-29T11:53:50.428Z,59.8
2018-12-29T11:54:39.681Z,59.8
2018-12-29T11:55:30.418Z,59.8
2018-12-29T11:56:20.376Z,59.8
2018-12-29T11:57:10.945Z,59.8